sensor_id;sensor_type;location;lat;lon;timestamp;temperature;humidity
22006;DHT22;11167;46.988;15.470;2022-10-16T00:00:54;14.90;85.50
22006;DHT22;11167;46.988;15.470;2022-10-16T00:02:55;14.90;85.50
22006;DHT22;11167;46.988;15.470;2022-10-16T00:04:57;14.90;86.30
22006;DHT22;11167;46.988;15.470;2022-10-16T00:06:58;14.90;85.60
22006;DHT22;11167;46.988;15.470;2022-10-16T00:08:59;14.80;85.40
22006;DHT22;11167;46.988;15.470;2022-10-16T00:11:03;14.80;85.60
22006;DHT22;11167;46.988;15.470;2022-10-16T00:13:05;14.80;85.50
22006;DHT22;11167;46.988;15.470;2022-10-16T00:15:07;14.80;85.50
22006;DHT22;11167;46.988;15.470;2022-10-16T00:17:09;14.80;85.50
22006;DHT22;11167;46.988;15.470;2022-10-16T00:19:10;14.80;86.40
22006;DHT22;11167;46.988;15.470;2022-10-16T00:21:19;14.80;85.60
22006;DHT22;11167;46.988;15.470;2022-10-16T00:23:17;14.80;85.60
22006;DHT22;11167;46.988;15.470;2022-10-16T00:25:19;14.80;85.60
22006;DHT22;11167;46.988;15.470;2022-10-16T00:27:20;14.80;85.60
22006;DHT22;11167;46.988;15.470;2022-10-16T00:29:21;14.80;85.60
22006;DHT22;11167;46.988;15.470;2022-10-16T00:31:23;14.80;85.60
22006;DHT22;11167;46.988;15.470;2022-10-16T00:33:24;14.70;85.50
22006;DHT22;11167;46.988;15.470;2022-10-16T00:35:26;14.70;85.60
22006;DHT22;11167;46.988;15.470;2022-10-16T00:37:27;14.70;85.50
22006;DHT22;11167;46.988;15.470;2022-10-16T00:39:28;14.70;85.50
22006;DHT22;11167;46.988;15.470;2022-10-16T00:41:29;14.70;85.60
22006;DHT22;11167;46.988;15.470;2022-10-16T00:43:46;14.70;85.60
22006;DHT22;11167;46.988;15.470;2022-10-16T00:45:47;14.70;85.60
22006;DHT22;11167;46.988;15.470;2022-10-16T00:47:49;14.70;85.60
22006;DHT22;11167;46.988;15.470;2022-10-16T00:49:55;14.70;85.60
22006;DHT22;11167;46.988;15.470;2022-10-16T00:51:57;14.60;85.60
22006;DHT22;11167;46.988;15.470;2022-10-16T00:53:59;14.60;85.70
22006;DHT22;11167;46.988;15.470;2022-10-16T00:56:02;14.60;85.60
22006;DHT22;11167;46.988;15.470;2022-10-16T00:58:03;14.60;85.60
22006;DHT22;11167;46.988;15.470;2022-10-16T01:00:07;14.60;85.60
22006;DHT22;11167;46.988;15.470;2022-10-16T01:02:11;14.60;85.70
22006;DHT22;11167;46.988;15.470;2022-10-16T01:04:13;14.60;85.70
22006;DHT22;11167;46.988;15.470;2022-10-16T01:06:24;14.60;85.70
22006;DHT22;11167;46.988;15.470;2022-10-16T01:08:28;14.60;85.60
22006;DHT22;11167;46.988;15.470;2022-10-16T01:10:54;14.60;85.60
22006;DHT22;11167;46.988;15.470;2022-10-16T01:13:01;14.60;85.70
22006;DHT22;11167;46.988;15.470;2022-10-16T01:15:11;14.60;85.70
22006;DHT22;11167;46.988;15.470;2022-10-16T01:17:23;14.50;85.60
22006;DHT22;11167;46.988;15.470;2022-10-16T01:21:43;14.50;85.70
22006;DHT22;11167;46.988;15.470;2022-10-16T01:28:32;14.50;85.70
22006;DHT22;11167;46.988;15.470;2022-10-16T01:30:32;14.50;85.70
22006;DHT22;11167;46.988;15.470;2022-10-16T01:32:38;14.50;85.80
22006;DHT22;11167;46.988;15.470;2022-10-16T01:34:48;14.50;85.70
22006;DHT22;11167;46.988;15.470;2022-10-16T01:37:00;14.40;85.70
22006;DHT22;11167;46.988;15.470;2022-10-16T01:39:01;14.50;85.70
22006;DHT22;11167;46.988;15.470;2022-10-16T01:41:25;14.40;85.70
22006;DHT22;11167;46.988;15.470;2022-10-16T01:43:35;14.40;85.70
22006;DHT22;11167;46.988;15.470;2022-10-16T01:45:36;14.40;85.80
22006;DHT22;11167;46.988;15.470;2022-10-16T01:47:39;14.40;85.80
22006;DHT22;11167;46.988;15.470;2022-10-16T01:49:41;14.40;85.70
22006;DHT22;11167;46.988;15.470;2022-10-16T01:51:46;14.40;85.70
22006;DHT22;11167;46.988;15.470;2022-10-16T01:53:52;14.40;85.70
22006;DHT22;11167;46.988;15.470;2022-10-16T01:55:55;14.40;85.70
22006;DHT22;11167;46.988;15.470;2022-10-16T01:57:57;14.40;85.80
22006;DHT22;11167;46.988;15.470;2022-10-16T02:00:04;14.40;85.80
22006;DHT22;11167;46.988;15.470;2022-10-16T02:02:08;14.40;85.70
22006;DHT22;11167;46.988;15.470;2022-10-16T02:04:28;14.40;85.80
22006;DHT22;11167;46.988;15.470;2022-10-16T02:06:30;14.40;85.80
22006;DHT22;11167;46.988;15.470;2022-10-16T02:08:32;14.40;85.80
22006;DHT22;11167;46.988;15.470;2022-10-16T02:10:34;14.40;85.90
22006;DHT22;11167;46.988;15.470;2022-10-16T02:12:38;14.30;85.80
22006;DHT22;11167;46.988;15.470;2022-10-16T02:14:41;14.30;85.80
22006;DHT22;11167;46.988;15.470;2022-10-16T02:16:44;14.40;85.90
22006;DHT22;11167;46.988;15.470;2022-10-16T02:18:46;14.30;85.80
22006;DHT22;11167;46.988;15.470;2022-10-16T02:21:03;14.30;85.80
22006;DHT22;11167;46.988;15.470;2022-10-16T02:23:06;14.30;85.80
22006;DHT22;11167;46.988;15.470;2022-10-16T02:25:31;14.30;85.80
22006;DHT22;11167;46.988;15.470;2022-10-16T02:29:46;14.30;85.90
22006;DHT22;11167;46.988;15.470;2022-10-16T02:31:51;14.30;85.90
22006;DHT22;11167;46.988;15.470;2022-10-16T02:33:54;14.30;85.90
22006;DHT22;11167;46.988;15.470;2022-10-16T02:35:57;14.30;86.10
22006;DHT22;11167;46.988;15.470;2022-10-16T02:37:59;14.30;85.90
22006;DHT22;11167;46.988;15.470;2022-10-16T02:40:00;14.30;85.90
22006;DHT22;11167;46.988;15.470;2022-10-16T02:42:02;14.30;85.90
22006;DHT22;11167;46.988;15.470;2022-10-16T02:44:03;14.30;85.90
22006;DHT22;11167;46.988;15.470;2022-10-16T02:46:05;14.30;85.90
22006;DHT22;11167;46.988;15.470;2022-10-16T02:48:06;14.30;86.00
22006;DHT22;11167;46.988;15.470;2022-10-16T02:50:07;14.30;85.90
22006;DHT22;11167;46.988;15.470;2022-10-16T02:52:09;14.30;85.90
22006;DHT22;11167;46.988;15.470;2022-10-16T02:54:10;14.30;85.90
22006;DHT22;11167;46.988;15.470;2022-10-16T02:56:11;14.30;86.00
22006;DHT22;11167;46.988;15.470;2022-10-16T02:58:12;14.30;86.00
22006;DHT22;11167;46.988;15.470;2022-10-16T03:00:15;14.30;86.00
22006;DHT22;11167;46.988;15.470;2022-10-16T03:02:16;14.20;85.90
22006;DHT22;11167;46.988;15.470;2022-10-16T03:04:18;14.20;85.90
22006;DHT22;11167;46.988;15.470;2022-10-16T03:06:19;14.20;86.10
22006;DHT22;11167;46.988;15.470;2022-10-16T03:08:20;14.20;86.10
22006;DHT22;11167;46.988;15.470;2022-10-16T03:10:23;14.20;85.90
22006;DHT22;11167;46.988;15.470;2022-10-16T03:12:24;14.20;85.90
22006;DHT22;11167;46.988;15.470;2022-10-16T03:14:25;14.20;86.10
22006;DHT22;11167;46.988;15.470;2022-10-16T03:16:46;14.20;86.00
22006;DHT22;11167;46.988;15.470;2022-10-16T03:18:48;14.20;85.90
22006;DHT22;11167;46.988;15.470;2022-10-16T03:20:50;14.20;86.00
22006;DHT22;11167;46.988;15.470;2022-10-16T03:22:51;14.20;86.00
22006;DHT22;11167;46.988;15.470;2022-10-16T03:24:53;14.20;86.00
22006;DHT22;11167;46.988;15.470;2022-10-16T03:26:54;14.20;86.10
22006;DHT22;11167;46.988;15.470;2022-10-16T03:28:55;14.20;86.10
22006;DHT22;11167;46.988;15.470;2022-10-16T03:30:56;14.20;86.10
22006;DHT22;11167;46.988;15.470;2022-10-16T03:32:57;14.20;86.80
22006;DHT22;11167;46.988;15.470;2022-10-16T03:34:58;14.20;86.80
22006;DHT22;11167;46.988;15.470;2022-10-16T03:37:00;14.20;86.10
22006;DHT22;11167;46.988;15.470;2022-10-16T03:39:01;14.20;86.10
22006;DHT22;11167;46.988;15.470;2022-10-16T03:41:02;14.20;86.10
22006;DHT22;11167;46.988;15.470;2022-10-16T03:43:04;14.20;86.10
22006;DHT22;11167;46.988;15.470;2022-10-16T03:45:06;14.20;86.10
22006;DHT22;11167;46.988;15.470;2022-10-16T03:47:07;14.20;86.10
22006;DHT22;11167;46.988;15.470;2022-10-16T03:49:08;14.20;86.10
22006;DHT22;11167;46.988;15.470;2022-10-16T03:51:09;14.20;86.10
22006;DHT22;11167;46.988;15.470;2022-10-16T03:53:10;14.20;86.10
22006;DHT22;11167;46.988;15.470;2022-10-16T03:55:11;14.20;86.20
22006;DHT22;11167;46.988;15.470;2022-10-16T03:57:13;14.20;86.10
22006;DHT22;11167;46.988;15.470;2022-10-16T03:59:14;14.20;86.10
22006;DHT22;11167;46.988;15.470;2022-10-16T04:01:15;14.20;86.10
22006;DHT22;11167;46.988;15.470;2022-10-16T04:03:16;14.20;86.10
22006;DHT22;11167;46.988;15.470;2022-10-16T04:05:19;14.20;86.10
22006;DHT22;11167;46.988;15.470;2022-10-16T04:07:20;14.10;86.10
22006;DHT22;11167;46.988;15.470;2022-10-16T04:09:22;14.20;86.20
22006;DHT22;11167;46.988;15.470;2022-10-16T04:11:23;14.20;86.20
22006;DHT22;11167;46.988;15.470;2022-10-16T04:13:24;14.20;86.20
22006;DHT22;11167;46.988;15.470;2022-10-16T04:15:25;14.20;86.20
22006;DHT22;11167;46.988;15.470;2022-10-16T04:17:27;14.10;86.30
22006;DHT22;11167;46.988;15.470;2022-10-16T04:19:28;14.20;86.20
22006;DHT22;11167;46.988;15.470;2022-10-16T04:21:29;14.20;86.30
22006;DHT22;11167;46.988;15.470;2022-10-16T04:23:30;14.20;86.30
22006;DHT22;11167;46.988;15.470;2022-10-16T04:25:31;14.20;86.30
22006;DHT22;11167;46.988;15.470;2022-10-16T04:27:32;14.10;86.20
22006;DHT22;11167;46.988;15.470;2022-10-16T04:29:33;14.20;86.30
22006;DHT22;11167;46.988;15.470;2022-10-16T04:31:34;14.10;86.30
22006;DHT22;11167;46.988;15.470;2022-10-16T04:33:36;14.10;86.30
22006;DHT22;11167;46.988;15.470;2022-10-16T04:35:37;14.10;86.30
22006;DHT22;11167;46.988;15.470;2022-10-16T04:37:38;14.10;86.30
22006;DHT22;11167;46.988;15.470;2022-10-16T04:39:39;14.10;86.30
22006;DHT22;11167;46.988;15.470;2022-10-16T04:41:40;14.10;86.30
22006;DHT22;11167;46.988;15.470;2022-10-16T04:43:42;14.10;86.30
22006;DHT22;11167;46.988;15.470;2022-10-16T04:45:43;14.10;86.40
22006;DHT22;11167;46.988;15.470;2022-10-16T04:47:44;14.10;86.30
22006;DHT22;11167;46.988;15.470;2022-10-16T04:49:45;14.10;86.40
22006;DHT22;11167;46.988;15.470;2022-10-16T04:51:46;14.10;86.40
22006;DHT22;11167;46.988;15.470;2022-10-16T04:53:47;14.10;86.50
22006;DHT22;11167;46.988;15.470;2022-10-16T04:55:49;14.10;86.50
22006;DHT22;11167;46.988;15.470;2022-10-16T04:57:51;14.10;85.80
22006;DHT22;11167;46.988;15.470;2022-10-16T04:59:52;14.10;86.50
22006;DHT22;11167;46.988;15.470;2022-10-16T05:01:54;14.10;86.50
22006;DHT22;11167;46.988;15.470;2022-10-16T05:03:55;14.10;86.50
22006;DHT22;11167;46.988;15.470;2022-10-16T05:05:56;14.10;86.50
22006;DHT22;11167;46.988;15.470;2022-10-16T05:07:57;14.10;86.60
22006;DHT22;11167;46.988;15.470;2022-10-16T05:09:58;14.10;86.50
22006;DHT22;11167;46.988;15.470;2022-10-16T05:11:59;14.10;86.60
22006;DHT22;11167;46.988;15.470;2022-10-16T05:14:00;14.10;86.60
22006;DHT22;11167;46.988;15.470;2022-10-16T05:16:01;14.10;86.60
22006;DHT22;11167;46.988;15.470;2022-10-16T05:18:03;14.10;86.60
22006;DHT22;11167;46.988;15.470;2022-10-16T05:20:05;14.10;86.60
22006;DHT22;11167;46.988;15.470;2022-10-16T05:22:06;14.10;86.60
22006;DHT22;11167;46.988;15.470;2022-10-16T05:24:07;14.10;86.60
22006;DHT22;11167;46.988;15.470;2022-10-16T05:26:09;14.10;86.60
22006;DHT22;11167;46.988;15.470;2022-10-16T05:28:11;14.10;86.60
22006;DHT22;11167;46.988;15.470;2022-10-16T05:30:12;14.10;86.60
22006;DHT22;11167;46.988;15.470;2022-10-16T05:32:14;14.10;86.60
22006;DHT22;11167;46.988;15.470;2022-10-16T05:34:15;14.10;86.60
22006;DHT22;11167;46.988;15.470;2022-10-16T05:36:17;14.10;86.60
22006;DHT22;11167;46.988;15.470;2022-10-16T05:38:19;14.10;86.60
22006;DHT22;11167;46.988;15.470;2022-10-16T05:40:20;14.00;86.60
22006;DHT22;11167;46.988;15.470;2022-10-16T05:42:21;14.10;86.60
22006;DHT22;11167;46.988;15.470;2022-10-16T05:44:22;14.00;86.60
22006;DHT22;11167;46.988;15.470;2022-10-16T05:46:23;14.00;86.50
22006;DHT22;11167;46.988;15.470;2022-10-16T05:48:25;14.00;86.60
22006;DHT22;11167;46.988;15.470;2022-10-16T05:50:27;14.00;86.70
22006;DHT22;11167;46.988;15.470;2022-10-16T05:52:28;14.00;86.60
22006;DHT22;11167;46.988;15.470;2022-10-16T05:54:29;14.00;86.60
22006;DHT22;11167;46.988;15.470;2022-10-16T05:56:31;14.00;86.60
22006;DHT22;11167;46.988;15.470;2022-10-16T05:58:34;14.00;86.80
22006;DHT22;11167;46.988;15.470;2022-10-16T06:00:36;14.00;86.80
22006;DHT22;11167;46.988;15.470;2022-10-16T06:02:37;14.00;86.70
22006;DHT22;11167;46.988;15.470;2022-10-16T06:04:38;14.00;86.80
22006;DHT22;11167;46.988;15.470;2022-10-16T06:06:39;14.00;86.80
22006;DHT22;11167;46.988;15.470;2022-10-16T06:08:42;14.00;86.80
22006;DHT22;11167;46.988;15.470;2022-10-16T06:10:45;14.00;86.70
22006;DHT22;11167;46.988;15.470;2022-10-16T06:12:46;14.00;86.70
22006;DHT22;11167;46.988;15.470;2022-10-16T06:14:47;14.00;86.70
22006;DHT22;11167;46.988;15.470;2022-10-16T06:16:49;14.00;86.80
22006;DHT22;11167;46.988;15.470;2022-10-16T06:18:51;14.00;86.80
22006;DHT22;11167;46.988;15.470;2022-10-16T06:20:53;14.00;86.70
22006;DHT22;11167;46.988;15.470;2022-10-16T06:22:54;14.00;86.70
22006;DHT22;11167;46.988;15.470;2022-10-16T06:24:55;14.00;86.80
22006;DHT22;11167;46.988;15.470;2022-10-16T06:26:56;14.00;86.80
22006;DHT22;11167;46.988;15.470;2022-10-16T06:28:59;14.00;86.80
22006;DHT22;11167;46.988;15.470;2022-10-16T06:31:01;14.00;86.80
22006;DHT22;11167;46.988;15.470;2022-10-16T06:33:03;14.00;86.80
22006;DHT22;11167;46.988;15.470;2022-10-16T06:35:04;14.00;86.80
22006;DHT22;11167;46.988;15.470;2022-10-16T06:37:05;14.00;86.80
22006;DHT22;11167;46.988;15.470;2022-10-16T06:39:07;14.00;86.80
22006;DHT22;11167;46.988;15.470;2022-10-16T06:41:13;14.00;86.80
22006;DHT22;11167;46.988;15.470;2022-10-16T06:43:14;14.00;86.80
22006;DHT22;11167;46.988;15.470;2022-10-16T06:45:15;14.00;87.60
22006;DHT22;11167;46.988;15.470;2022-10-16T06:47:17;14.00;86.80
22006;DHT22;11167;46.988;15.470;2022-10-16T06:49:21;14.00;86.80
22006;DHT22;11167;46.988;15.470;2022-10-16T06:51:25;14.00;86.80
22006;DHT22;11167;46.988;15.470;2022-10-16T06:53:28;13.90;86.80
22006;DHT22;11167;46.988;15.470;2022-10-16T06:55:29;13.90;86.70
22006;DHT22;11167;46.988;15.470;2022-10-16T06:57:31;13.90;86.80
22006;DHT22;11167;46.988;15.470;2022-10-16T06:59:32;14.00;86.80
22006;DHT22;11167;46.988;15.470;2022-10-16T07:01:33;13.90;86.70
22006;DHT22;11167;46.988;15.470;2022-10-16T07:03:39;14.00;86.80
22006;DHT22;11167;46.988;15.470;2022-10-16T07:05:41;13.90;86.80
22006;DHT22;11167;46.988;15.470;2022-10-16T07:07:43;13.90;86.70
22006;DHT22;11167;46.988;15.470;2022-10-16T07:09:44;13.90;86.80
22006;DHT22;11167;46.988;15.470;2022-10-16T07:11:45;13.90;87.40
22006;DHT22;11167;46.988;15.470;2022-10-16T07:13:47;13.90;86.80
22006;DHT22;11167;46.988;15.470;2022-10-16T07:15:49;13.90;87.80
22006;DHT22;11167;46.988;15.470;2022-10-16T07:17:50;13.90;86.80
22006;DHT22;11167;46.988;15.470;2022-10-16T07:19:51;13.90;86.80
22006;DHT22;11167;46.988;15.470;2022-10-16T07:21:54;13.90;86.80
22006;DHT22;11167;46.988;15.470;2022-10-16T07:23:57;13.90;86.80
22006;DHT22;11167;46.988;15.470;2022-10-16T07:25:58;13.90;86.80
22006;DHT22;11167;46.988;15.470;2022-10-16T07:27:59;13.90;86.80
22006;DHT22;11167;46.988;15.470;2022-10-16T07:30:01;13.90;86.80
22006;DHT22;11167;46.988;15.470;2022-10-16T07:32:02;13.90;86.90
22006;DHT22;11167;46.988;15.470;2022-10-16T07:34:03;14.00;86.20
22006;DHT22;11167;46.988;15.470;2022-10-16T07:36:05;14.00;86.90
22006;DHT22;11167;46.988;15.470;2022-10-16T07:38:06;14.00;87.00
22006;DHT22;11167;46.988;15.470;2022-10-16T07:40:08;14.00;87.60
22006;DHT22;11167;46.988;15.470;2022-10-16T07:42:10;14.00;86.90
22006;DHT22;11167;46.988;15.470;2022-10-16T07:44:11;14.00;86.90
22006;DHT22;11167;46.988;15.470;2022-10-16T07:46:12;14.00;87.60
22006;DHT22;11167;46.988;15.470;2022-10-16T07:48:13;14.00;87.00
22006;DHT22;11167;46.988;15.470;2022-10-16T07:50:14;14.00;87.00
22006;DHT22;11167;46.988;15.470;2022-10-16T07:52:15;14.00;87.00
22006;DHT22;11167;46.988;15.470;2022-10-16T07:54:16;14.00;87.00
22006;DHT22;11167;46.988;15.470;2022-10-16T07:56:18;14.00;87.00
22006;DHT22;11167;46.988;15.470;2022-10-16T07:58:20;14.00;87.10
22006;DHT22;11167;46.988;15.470;2022-10-16T08:00:21;14.00;87.00
22006;DHT22;11167;46.988;15.470;2022-10-16T08:02:22;14.00;87.00
22006;DHT22;11167;46.988;15.470;2022-10-16T08:04:23;14.00;87.10
22006;DHT22;11167;46.988;15.470;2022-10-16T08:06:24;14.00;87.10
22006;DHT22;11167;46.988;15.470;2022-10-16T08:08:26;14.00;87.00
22006;DHT22;11167;46.988;15.470;2022-10-16T08:10:28;14.00;87.50
22006;DHT22;11167;46.988;15.470;2022-10-16T08:12:29;14.00;87.10
22006;DHT22;11167;46.988;15.470;2022-10-16T08:14:31;14.00;87.10
22006;DHT22;11167;46.988;15.470;2022-10-16T08:16:32;14.00;87.20
22006;DHT22;11167;46.988;15.470;2022-10-16T08:18:34;14.00;87.30
22006;DHT22;11167;46.988;15.470;2022-10-16T08:20:36;14.00;87.30
22006;DHT22;11167;46.988;15.470;2022-10-16T08:22:37;14.10;87.30
22006;DHT22;11167;46.988;15.470;2022-10-16T08:24:38;14.10;87.50
22006;DHT22;11167;46.988;15.470;2022-10-16T08:26:41;14.10;87.40
22006;DHT22;11167;46.988;15.470;2022-10-16T08:28:42;14.10;87.30
22006;DHT22;11167;46.988;15.470;2022-10-16T08:30:43;14.10;87.40
22006;DHT22;11167;46.988;15.470;2022-10-16T08:32:44;14.10;87.40
22006;DHT22;11167;46.988;15.470;2022-10-16T08:34:45;14.10;87.30
22006;DHT22;11167;46.988;15.470;2022-10-16T08:36:46;14.10;87.30
22006;DHT22;11167;46.988;15.470;2022-10-16T08:38:48;14.10;87.30
22006;DHT22;11167;46.988;15.470;2022-10-16T08:40:50;14.10;87.40
22006;DHT22;11167;46.988;15.470;2022-10-16T08:47:39;14.20;87.40
22006;DHT22;11167;46.988;15.470;2022-10-16T08:49:41;14.20;87.40
22006;DHT22;11167;46.988;15.470;2022-10-16T08:51:43;14.20;87.50
22006;DHT22;11167;46.988;15.470;2022-10-16T08:53:50;14.20;87.60
22006;DHT22;11167;46.988;15.470;2022-10-16T08:55:53;14.20;87.50
22006;DHT22;11167;46.988;15.470;2022-10-16T08:57:54;14.20;87.60
22006;DHT22;11167;46.988;15.470;2022-10-16T09:00:05;14.20;87.60
22006;DHT22;11167;46.988;15.470;2022-10-16T09:02:01;14.30;87.70
22006;DHT22;11167;46.988;15.470;2022-10-16T09:06:32;14.30;87.80
22006;DHT22;11167;46.988;15.470;2022-10-16T09:09:04;14.30;87.80
22006;DHT22;11167;46.988;15.470;2022-10-16T09:11:17;14.40;87.80
22006;DHT22;11167;46.988;15.470;2022-10-16T09:15:34;14.40;88.00
22006;DHT22;11167;46.988;15.470;2022-10-16T09:22:16;14.50;88.20
22006;DHT22;11167;46.988;15.470;2022-10-16T09:24:20;14.50;88.20
22006;DHT22;11167;46.988;15.470;2022-10-16T09:26:22;14.50;88.30
22006;DHT22;11167;46.988;15.470;2022-10-16T09:28:24;14.60;88.40
22006;DHT22;11167;46.988;15.470;2022-10-16T09:30:27;14.60;88.50
22006;DHT22;11167;46.988;15.470;2022-10-16T09:32:31;14.60;88.50
22006;DHT22;11167;46.988;15.470;2022-10-16T09:34:36;14.60;88.50
22006;DHT22;11167;46.988;15.470;2022-10-16T09:36:43;14.70;88.60
22006;DHT22;11167;46.988;15.470;2022-10-16T09:38:45;14.70;88.60
22006;DHT22;11167;46.988;15.470;2022-10-16T09:40:48;14.80;88.80
22006;DHT22;11167;46.988;15.470;2022-10-16T09:42:52;14.80;88.90
22006;DHT22;11167;46.988;15.470;2022-10-16T09:44:54;14.80;88.80
22006;DHT22;11167;46.988;15.470;2022-10-16T09:47:16;14.90;89.00
22006;DHT22;11167;46.988;15.470;2022-10-16T09:49:26;14.90;89.00
22006;DHT22;11167;46.988;15.470;2022-10-16T09:51:34;15.00;89.20
22006;DHT22;11167;46.988;15.470;2022-10-16T09:53:44;15.00;89.20
22006;DHT22;11167;46.988;15.470;2022-10-16T09:55:53;15.00;89.20
22006;DHT22;11167;46.988;15.470;2022-10-16T09:57:54;15.10;89.30
22006;DHT22;11167;46.988;15.470;2022-10-16T09:59:57;15.10;89.30
22006;DHT22;11167;46.988;15.470;2022-10-16T10:02:04;15.10;89.40
22006;DHT22;11167;46.988;15.470;2022-10-16T10:04:07;15.20;89.50
22006;DHT22;11167;46.988;15.470;2022-10-16T10:06:23;15.20;89.60
22006;DHT22;11167;46.988;15.470;2022-10-16T10:08:25;15.30;89.60
22006;DHT22;11167;46.988;15.470;2022-10-16T10:10:28;15.30;89.70
22006;DHT22;11167;46.988;15.470;2022-10-16T10:12:31;15.40;89.80
22006;DHT22;11167;46.988;15.470;2022-10-16T10:14:50;15.50;89.90
22006;DHT22;11167;46.988;15.470;2022-10-16T10:17:01;15.50;90.30
22006;DHT22;11167;46.988;15.470;2022-10-16T10:18:59;15.50;90.00
22006;DHT22;11167;46.988;15.470;2022-10-16T10:21:02;15.50;90.00
22006;DHT22;11167;46.988;15.470;2022-10-16T10:23:23;15.60;90.00
22006;DHT22;11167;46.988;15.470;2022-10-16T10:25:45;15.70;90.00
22006;DHT22;11167;46.988;15.470;2022-10-16T10:35:36;15.90;90.10
22006;DHT22;11167;46.988;15.470;2022-10-16T10:39:46;16.00;90.20
22006;DHT22;11167;46.988;15.470;2022-10-16T10:51:08;16.40;90.40
22006;DHT22;11167;46.988;15.470;2022-10-16T10:53:38;16.40;90.40
22006;DHT22;11167;46.988;15.470;2022-10-16T10:56:00;16.50;90.40
22006;DHT22;11167;46.988;15.470;2022-10-16T11:00:28;16.60;90.50
22006;DHT22;11167;46.988;15.470;2022-10-16T11:02:37;16.70;90.50
22006;DHT22;11167;46.988;15.470;2022-10-16T11:06:50;16.80;90.60
22006;DHT22;11167;46.988;15.470;2022-10-16T11:08:51;16.90;90.60
22006;DHT22;11167;46.988;15.470;2022-10-16T11:10:57;17.00;90.70
22006;DHT22;11167;46.988;15.470;2022-10-16T11:15:36;17.10;90.70
22006;DHT22;11167;46.988;15.470;2022-10-16T11:17:47;17.20;90.70
22006;DHT22;11167;46.988;15.470;2022-10-16T11:22:17;17.40;90.80
22006;DHT22;11167;46.988;15.470;2022-10-16T11:26:39;17.50;90.90
22006;DHT22;11167;46.988;15.470;2022-10-16T11:28:50;17.60;90.90
22006;DHT22;11167;46.988;15.470;2022-10-16T11:31:00;17.70;90.90
22006;DHT22;11167;46.988;15.470;2022-10-16T11:35:25;17.80;91.00
22006;DHT22;11167;46.988;15.470;2022-10-16T11:37:41;17.90;91.00
22006;DHT22;11167;46.988;15.470;2022-10-16T11:39:43;18.00;91.00
22006;DHT22;11167;46.988;15.470;2022-10-16T11:42:07;18.10;91.10
22006;DHT22;11167;46.988;15.470;2022-10-16T11:46:29;18.30;91.20
22006;DHT22;11167;46.988;15.470;2022-10-16T11:48:45;18.30;91.20
22006;DHT22;11167;46.988;15.470;2022-10-16T11:50:57;18.40;91.20
22006;DHT22;11167;46.988;15.470;2022-10-16T11:53:20;18.50;91.30
22006;DHT22;11167;46.988;15.470;2022-10-16T11:55:24;18.60;91.30
22006;DHT22;11167;46.988;15.470;2022-10-16T11:57:39;18.70;91.30
22006;DHT22;11167;46.988;15.470;2022-10-16T11:59:48;18.80;91.40
22006;DHT22;11167;46.988;15.470;2022-10-16T12:01:54;18.90;91.40
22006;DHT22;11167;46.988;15.470;2022-10-16T12:04:04;19.00;91.40
22006;DHT22;11167;46.988;15.470;2022-10-16T12:06:32;19.00;91.40
22006;DHT22;11167;46.988;15.470;2022-10-16T12:08:35;19.10;91.50
22006;DHT22;11167;46.988;15.470;2022-10-16T12:10:37;19.20;91.50
22006;DHT22;11167;46.988;15.470;2022-10-16T12:12:39;19.30;91.50
22006;DHT22;11167;46.988;15.470;2022-10-16T12:14:42;19.40;91.60
22006;DHT22;11167;46.988;15.470;2022-10-16T12:16:57;19.50;91.60
22006;DHT22;11167;46.988;15.470;2022-10-16T12:19:15;19.60;91.70
22006;DHT22;11167;46.988;15.470;2022-10-16T12:21:17;19.70;91.70
22006;DHT22;11167;46.988;15.470;2022-10-16T12:23:21;19.80;91.80
22006;DHT22;11167;46.988;15.470;2022-10-16T12:25:31;19.80;91.70
22006;DHT22;11167;46.988;15.470;2022-10-16T12:27:34;19.90;91.70
22006;DHT22;11167;46.988;15.470;2022-10-16T12:29:41;20.00;91.80
22006;DHT22;11167;46.988;15.470;2022-10-16T12:31:45;20.10;91.80
22006;DHT22;11167;46.988;15.470;2022-10-16T12:36:33;20.30;91.80
22006;DHT22;11167;46.988;15.470;2022-10-16T12:38:46;20.30;91.80
22006;DHT22;11167;46.988;15.470;2022-10-16T12:40:59;20.40;91.90
22006;DHT22;11167;46.988;15.470;2022-10-16T12:43:13;20.50;91.90
22006;DHT22;11167;46.988;15.470;2022-10-16T12:45:31;20.60;91.90
22006;DHT22;11167;46.988;15.470;2022-10-16T12:49:47;20.70;92.00
22006;DHT22;11167;46.988;15.470;2022-10-16T12:51:43;20.80;92.00
22006;DHT22;11167;46.988;15.470;2022-10-16T12:53:44;20.90;92.00
22006;DHT22;11167;46.988;15.470;2022-10-16T12:56:09;21.00;92.10
22006;DHT22;11167;46.988;15.470;2022-10-16T12:58:16;21.10;92.10
22006;DHT22;11167;46.988;15.470;2022-10-16T13:00:28;21.20;92.10
22006;DHT22;11167;46.988;15.470;2022-10-16T13:12:51;21.60;92.20
22006;DHT22;11167;46.988;15.470;2022-10-16T13:17:35;21.80;92.20
22006;DHT22;11167;46.988;15.470;2022-10-16T13:19:47;21.80;92.30
22006;DHT22;11167;46.988;15.470;2022-10-16T13:26:20;22.10;92.40
22006;DHT22;11167;46.988;15.470;2022-10-16T13:28:22;22.10;92.30
22006;DHT22;11167;46.988;15.470;2022-10-16T13:32:26;22.20;91.70
22006;DHT22;11167;46.988;15.470;2022-10-16T13:34:28;22.40;92.40
22006;DHT22;11167;46.988;15.470;2022-10-16T13:36:35;22.40;92.40
22006;DHT22;11167;46.988;15.470;2022-10-16T13:38:36;22.50;92.40
22006;DHT22;11167;46.988;15.470;2022-10-16T13:40:49;22.60;92.50
22006;DHT22;11167;46.988;15.470;2022-10-16T13:43:10;22.70;92.50
22006;DHT22;11167;46.988;15.470;2022-10-16T13:45:26;22.80;92.50
22006;DHT22;11167;46.988;15.470;2022-10-16T13:47:28;22.80;92.50
22006;DHT22;11167;46.988;15.470;2022-10-16T13:49:29;22.90;92.50
22006;DHT22;11167;46.988;15.470;2022-10-16T13:51:32;22.90;92.40
22006;DHT22;11167;46.988;15.470;2022-10-16T13:53:34;23.00;92.40
22006;DHT22;11167;46.988;15.470;2022-10-16T13:55:36;23.10;92.50
22006;DHT22;11167;46.988;15.470;2022-10-16T13:57:37;23.20;92.50
22006;DHT22;11167;46.988;15.470;2022-10-16T13:59:38;23.20;92.50
22006;DHT22;11167;46.988;15.470;2022-10-16T14:01:42;23.30;92.40
22006;DHT22;11167;46.988;15.470;2022-10-16T14:03:47;23.40;92.40
22006;DHT22;11167;46.988;15.470;2022-10-16T14:05:53;23.40;92.40
22006;DHT22;11167;46.988;15.470;2022-10-16T14:07:56;23.50;92.50
22006;DHT22;11167;46.988;15.470;2022-10-16T14:10:01;23.50;92.40
22006;DHT22;11167;46.988;15.470;2022-10-16T14:12:08;23.60;92.40
22006;DHT22;11167;46.988;15.470;2022-10-16T14:14:10;23.70;92.50